Time;durP1;ratioP1;P1;durP2;ratioP2;P2;SDS_P1;SDS_P2;PMS_P1;PMS_P2;Temp;Humidity;BMP_temperature;BMP_pressure;BME280_temperature;BME280_humidity;BME280_pressure;Samples;Min_cycle;Max_cycle;Signal;HPM_P1;HPM_P2
2023/05/29 00:03:01;;;;;;;8.10;4.20;;;;;;;9.10;55.94;100498.80;131082;1252;107541;-83
2023/05/29 00:06:07;;;;;;;9.70;4.80;;;;;;;9.07;55.97;100491.12;131384;1254;106426;-82
2023/05/29 00:09:13;;;;;;;7.60;4.40;;;;;;;9.01;56.11;100488.07;131372;1253;107244;-84
2023/05/29 00:12:18;;;;;;;8.20;4.50;;;;;;;8.95;56.09;100490.72;131396;1255;107524;-83
2023/05/29 00:15:24;;;;;;;9.60;5.00;;;;;;;8.93;56.18;100490.60;131199;1251;107364;-84
2023/05/29 00:18:29;;;;;;;7.90;4.40;;;;;;;8.90;56.25;100493.33;131287;1253;107678;-83
2023/05/29 00:21:35;;;;;;;8.40;4.30;;;;;;;8.88;56.41;100493.90;131402;1254;107526;-83
2023/05/29 00:24:40;;;;;;;7.40;4.40;;;;;;;8.81;56.40;100486.48;131428;1254;107660;-83
2023/05/29 00:27:46;;;;;;;7.20;4.30;;;;;;;8.76;56.51;100487.12;131279;1254;107538;-82
2023/05/29 00:30:51;;;;;;;8.30;4.90;;;;;;;8.71;56.49;100486.98;131127;1251;107498;-83
2023/05/29 00:33:57;;;;;;;7.00;4.20;;;;;;;8.68;56.50;100491.52;131417;1254;107495;-81
2023/05/29 00:37:03;;;;;;;11.90;7.00;;;;;;;8.64;56.55;100489.36;131350;1253;107499;-82
2023/05/29 00:40:11;;;;;;;13.30;6.90;;;;;;;8.61;56.57;100488.23;131257;1255;107521;-81
2023/05/29 00:43:16;;;;;;;10.90;6.10;;;;;;;8.57;56.87;100490.34;131397;1251;107271;-84
2023/05/29 00:46:22;;;;;;;8.40;4.40;;;;;;;8.55;56.78;100487.02;131258;1254;107511;-82
2023/05/29 00:49:28;;;;;;;7.00;4.20;;;;;;;8.50;56.90;100482.85;131377;1255;106529;-83
2023/05/29 00:52:34;;;;;;;7.50;4.40;;;;;;;8.43;57.11;100486.92;131368;1255;107451;-82
2023/05/29 00:55:40;;;;;;;5.80;3.70;;;;;;;8.41;56.97;100490.11;131236;1253;107245;-82
2023/05/29 00:58:46;;;;;;;7.40;4.00;;;;;;;8.39;57.14;100488.85;131354;1253;107440;-82
2023/05/29 01:01:52;;;;;;;6.10;3.90;;;;;;;8.32;57.16;100489.30;131330;1254;107414;-81
2023/05/29 01:04:59;;;;;;;6.60;4.20;;;;;;;8.27;57.17;100482.67;131133;1255;107524;-81
2023/05/29 01:08:04;;;;;;;7.90;4.30;;;;;;;8.26;57.45;100482.75;131018;1255;107522;-83
2023/05/29 01:11:26;;;;;;;5.40;3.50;;;;;;;8.28;57.40;100481.14;131115;1252;107250;-81
2023/05/29 01:14:44;;;;;;;5.90;3.70;;;;;;;8.23;57.37;100479.23;131265;1252;107240;-81
2023/05/29 01:18:17;;;;;;;5.60;3.80;;;;;;;8.19;57.36;100481.23;131379;1253;107519;-83
2023/05/29 01:21:28;;;;;;;7.60;4.10;;;;;;;8.18;57.44;100481.11;131106;1250;107336;-83
2023/05/29 01:24:46;;;;;;;5.50;3.80;;;;;;;8.16;57.62;100483.27;131151;1255;107514;-84
2023/05/29 01:27:53;;;;;;;7.10;4.10;;;;;;;8.12;57.67;100483.42;131351;1255;107545;-83
2023/05/29 01:31:03;;;;;;;6.80;3.80;;;;;;;8.05;57.75;100482.44;131394;1256;108371;-83
2023/05/29 01:34:09;;;;;;;6.00;3.80;;;;;;;7.97;57.79;100479.90;131142;1254;107497;-83
2023/05/29 01:37:15;;;;;;;7.60;3.80;;;;;;;7.93;57.69;100476.70;131153;1253;107268;-82
2023/05/29 01:40:20;;;;;;;5.90;3.70;;;;;;;7.90;57.75;100476.77;131303;1252;107663;-81
2023/05/29 01:43:26;;;;;;;6.30;3.80;;;;;;;7.84;57.85;100474.80;131245;1252;107518;-83
2023/05/29 01:46:32;;;;;;;6.80;4.00;;;;;;;7.79;57.92;100476.43;131308;1252;107861;-80
2023/05/29 01:49:40;;;;;;;7.20;4.90;;;;;;;7.79;57.92;100477.34;131076;1255;107502;-81
2023/05/29 01:52:47;;;;;;;9.50;5.00;;;;;;;7.78;58.04;100475.66;131275;1252;107445;-81
2023/05/29 01:55:53;;;;;;;6.80;4.30;;;;;;;7.75;58.06;100472.91;131321;1255;107517;-81
2023/05/29 01:59:01;;;;;;;6.30;3.80;;;;;;;7.67;58.09;100470.77;131092;1253;106546;-83
2023/05/29 02:02:10;;;;;;;6.80;4.00;;;;;;;7.63;58.25;100468.77;131272;1256;107464;-83
2023/05/29 02:05:17;;;;;;;4.90;3.40;;;;;;;7.62;58.18;100469.05;131320;1254;106835;-83
2023/05/29 02:08:22;;;;;;;7.00;3.90;;;;;;;7.59;58.29;100470.17;131388;1254;107532;-82
2023/05/29 02:11:28;;;;;;;7.80;4.00;;;;;;;7.59;58.58;100465.06;131369;1267;107305;-83
2023/05/29 02:14:34;;;;;;;5.70;3.90;;;;;;;7.58;58.55;100458.77;131369;1254;107652;-82
2023/05/29 02:17:41;;;;;;;6.20;3.80;;;;;;;7.56;58.50;100460.48;131329;1254;107166;-83
2023/05/29 02:20:47;;;;;;;5.70;3.30;;;;;;;7.57;58.41;100458.84;131370;1255;106516;-81
2023/05/29 02:23:59;;;;;;;6.90;4.00;;;;;;;7.53;58.45;100457.44;131511;1255;107526;-81
2023/05/29 02:27:05;;;;;;;6.20;3.80;;;;;;;7.50;58.67;100457.64;131142;1255;106133;-82
2023/05/29 02:30:12;;;;;;;6.50;4.10;;;;;;;7.51;58.84;100458.45;131375;1252;107511;-82
2023/05/29 02:33:17;;;;;;;6.20;3.60;;;;;;;7.49;58.44;100453.27;131168;1255;107451;-82
2023/05/29 02:36:23;;;;;;;7.00;3.80;;;;;;;7.43;58.95;100453.06;131326;1255;108127;-83
2023/05/29 02:39:29;;;;;;;6.80;3.90;;;;;;;7.41;58.80;100452.69;131173;1255;107445;-81
2023/05/29 02:42:35;;;;;;;6.80;3.90;;;;;;;7.44;58.97;100453.55;131248;1255;107360;-81
2023/05/29 02:45:43;;;;;;;5.70;3.60;;;;;;;7.45;59.09;100452.55;131360;1255;107410;-79
2023/05/29 02:48:48;;;;;;;5.60;3.70;;;;;;;7.48;58.85;100453.54;131121;1255;107547;-83
2023/05/29 02:51:56;;;;;;;7.30;3.30;;;;;;;7.48;58.93;100450.33;131323;1255;107387;-77
2023/05/29 02:55:02;;;;;;;5.90;3.90;;;;;;;7.46;59.07;100450.89;131164;1252;107522;-77
2023/05/29 02:58:11;;;;;;;6.20;3.30;;;;;;;7.48;59.16;100451.44;132987;1253;107835;-76
2023/05/29 03:01:16;;;;;;;6.10;3.50;;;;;;;7.52;59.04;100448.96;131011;1255;107760;-76
2023/05/29 03:04:22;;;;;;;5.50;3.90;;;;;;;7.57;59.18;100448.05;131270;1255;105445;-76
2023/05/29 03:07:28;;;;;;;7.10;3.60;;;;;;;7.59;59.38;100447.48;131285;1255;107370;-76
2023/05/29 03:10:35;;;;;;;6.70;3.90;;;;;;;7.62;59.33;100447.19;131313;1255;107382;-76
2023/05/29 03:13:40;;;;;;;6.70;3.90;;;;;;;7.66;59.10;100444.77;130993;1255;106675;-76
2023/05/29 03:16:48;;;;;;;5.60;3.80;;;;;;;7.73;59.18;100445.11;131248;1255;107432;-76
2023/05/29 03:19:53;;;;;;;6.30;3.40;;;;;;;7.81;59.14;100447.79;131326;1252;107388;-76
2023/05/29 03:22:59;;;;;;;7.30;4.20;;;;;;;7.94;59.32;100453.79;131193;1252;106423;-76
2023/05/29 03:26:06;;;;;;;5.60;3.90;;;;;;;8.07;59.53;100452.46;131228;1255;107541;-76
2023/05/29 03:29:12;;;;;;;5.90;3.90;;;;;;;8.26;59.58;100456.51;131165;1255;106821;-76
2023/05/29 03:32:18;;;;;;;4.80;3.50;;;;;;;8.50;59.60;100464.23;131195;1251;107237;-76
2023/05/29 03:35:23;;;;;;;5.60;3.70;;;;;;;8.75;59.54;100467.90;131283;1256;107492;-76
2023/05/29 03:38:29;;;;;;;6.70;3.70;;;;;;;8.95;59.29;100466.27;131185;1255;107533;-76
2023/05/29 03:41:36;;;;;;;5.90;3.90;;;;;;;9.16;59.38;100471.29;131193;1255;107349;-76
2023/05/29 03:44:43;;;;;;;7.20;3.80;;;;;;;9.39;59.58;100475.75;131354;1255;107421;-76
2023/05/29 03:47:48;;;;;;;8.40;4.10;;;;;;;9.64;59.25;100472.80;131255;1255;107534;-76
2023/05/29 03:50:54;;;;;;;7.50;4.30;;;;;;;9.83;59.41;100471.71;131211;1253;107268;-76
2023/05/29 03:54:05;;;;;;;6.60;4.40;;;;;;;10.04;59.28;100471.58;131045;1252;106524;-76
2023/05/29 03:57:12;;;;;;;8.00;4.70;;;;;;;10.28;59.70;100470.17;131161;1256;107493;-76
2023/05/29 04:00:18;;;;;;;8.90;5.10;;;;;;;10.51;59.43;100469.29;130976;1255;107339;-76
2023/05/29 04:03:26;;;;;;;7.40;4.40;;;;;;;10.77;59.55;100472.97;130985;1256;107642;-76
2023/05/29 04:06:31;;;;;;;8.10;3.80;;;;;;;11.07;59.60;100474.53;131009;1257;107522;-76
2023/05/29 04:09:37;;;;;;;7.40;4.90;;;;;;;11.33;59.87;100468.59;131056;1255;107550;-76
2023/05/29 04:12:43;;;;;;;5.10;3.60;;;;;;;11.60;59.44;100470.91;131124;1255;107391;-76
2023/05/29 04:15:48;;;;;;;11.00;4.50;;;;;;;11.84;59.48;100470.80;131246;1256;107465;-76
2023/05/29 04:18:56;;;;;;;13.80;5.10;;;;;;;12.14;59.80;100471.84;131252;1265;107435;-76
2023/05/29 04:22:04;;;;;;;7.00;4.10;;;;;;;12.45;59.53;100471.45;131170;1253;107412;-77
2023/05/29 04:25:10;;;;;;;6.10;3.60;;;;;;;12.77;59.51;100467.41;131111;1255;107364;-77
2023/05/29 04:28:16;;;;;;;7.50;3.70;;;;;;;13.09;59.33;100473.00;131099;1257;107518;-77
2023/05/29 04:31:24;;;;;;;9.00;4.70;;;;;;;13.34;59.37;100476.88;131297;1260;107407;-76
2023/05/29 04:34:31;;;;;;;10.00;5.10;;;;;;;13.64;59.28;100473.86;131305;1255;107351;-76
2023/05/29 04:37:38;;;;;;;9.40;5.20;;;;;;;13.93;59.20;100470.19;131213;1253;107336;-76
2023/05/29 04:40:44;;;;;;;7.50;4.60;;;;;;;14.17;59.03;100472.36;131271;1261;107349;-76
2023/05/29 04:43:52;;;;;;;7.30;4.50;;;;;;;14.39;59.41;100469.01;130971;1255;107240;-76
2023/05/29 04:46:58;;;;;;;6.40;3.70;;;;;;;14.59;58.76;100468.16;130962;1255;107505;-81
2023/05/29 04:50:04;;;;;;;8.60;4.00;;;;;;;14.80;59.09;100469.55;131075;1263;107553;-82
2023/05/29 04:53:10;;;;;;;7.70;4.60;;;;;;;14.99;59.07;100469.19;131052;1255;107554;-82
2023/05/29 04:56:16;;;;;;;6.80;4.20;;;;;;;15.16;59.25;100467.20;131304;1263;107420;-82
2023/05/29 04:59:22;;;;;;;9.30;3.90;;;;;;;15.29;58.67;100464.11;131234;1255;107460;-82
2023/05/29 05:02:27;;;;;;;5.10;3.90;;;;;;;15.30;58.35;100461.45;131136;1255;107291;-82
2023/05/29 05:05:33;;;;;;;5.10;3.60;;;;;;;15.36;58.59;100463.51;130928;1253;202580;-83
2023/05/29 05:08:40;;;;;;;5.60;3.20;;;;;;;15.48;58.70;100463.31;131134;1255;107356;-82
2023/05/29 05:11:45;;;;;;;5.30;3.20;;;;;;;15.69;58.83;100460.37;131068;1255;107569;-83
2023/05/29 05:14:52;;;;;;;18.90;3.90;;;;;;;15.92;58.83;100463.00;131135;1255;107395;-82
2023/05/29 05:17:57;;;;;;;6.00;4.00;;;;;;;16.14;58.78;100460.89;131101;1255;106126;-82
2023/05/29 05:21:04;;;;;;;6.60;3.70;;;;;;;16.34;58.97;100460.51;131033;1255;107410;-83
2023/05/29 05:24:09;;;;;;;7.50;3.50;;;;;;;16.51;58.73;100462.06;130965;1255;107446;-83
2023/05/29 05:27:18;;;;;;;6.20;3.60;;;;;;;16.67;58.60;100458.33;131092;1254;107522;-83
2023/05/29 05:30:23;;;;;;;5.70;3.20;;;;;;;16.80;58.65;100455.73;131112;1255;106407;-83
2023/05/29 05:33:29;;;;;;;5.90;3.30;;;;;;;16.96;58.14;100454.40;131031;1255;107547;-83
2023/05/29 05:36:34;;;;;;;5.40;3.00;;;;;;;17.11;57.72;100454.16;131264;1255;107583;-83
2023/05/29 05:39:46;;;;;;;4.50;2.70;;;;;;;17.27;57.62;100463.14;131231;1255;107357;-83
2023/05/29 05:42:51;;;;;;;4.30;2.60;;;;;;;17.37;57.40;100466.86;131384;1255;107471;-82
2023/05/29 05:46:02;;;;;;;5.10;2.90;;;;;;;17.48;57.45;100462.83;131293;1255;107425;-83
2023/05/29 05:49:08;;;;;;;7.00;3.10;;;;;;;17.61;57.25;100464.80;131403;1255;107431;-82
2023/05/29 05:52:14;;;;;;;4.00;2.70;;;;;;;17.66;56.85;100463.30;131390;1264;107338;-82
2023/05/29 05:55:20;;;;;;;3.30;2.70;;;;;;;17.58;56.65;100464.79;131081;1255;107492;-81
2023/05/29 05:58:27;;;;;;;5.10;2.60;;;;;;;17.56;56.26;100464.23;131349;1264;107389;-82
2023/05/29 06:01:33;;;;;;;3.60;2.40;;;;;;;17.56;56.60;100468.09;131186;1258;107533;-81
2023/05/29 06:04:38;;;;;;;4.80;2.30;;;;;;;17.64;56.38;100471.40;131082;1257;107378;-82
2023/05/29 06:07:44;;;;;;;4.00;2.20;;;;;;;17.75;56.42;100464.34;131276;1255;107716;-82
2023/05/29 06:10:50;;;;;;;3.60;2.10;;;;;;;17.84;55.84;100470.23;131146;1254;107425;-82
2023/05/29 06:13:55;;;;;;;6.10;2.90;;;;;;;17.85;55.57;100472.22;131086;1251;107440;-83
2023/05/29 06:17:04;;;;;;;4.00;2.60;;;;;;;17.80;55.74;100465.62;131142;1255;107471;-82
2023/05/29 06:20:13;;;;;;;6.60;3.10;;;;;;;17.83;55.92;100467.98;131277;1255;107560;-82
2023/05/29 06:23:19;;;;;;;6.80;3.50;;;;;;;17.84;55.69;100469.80;131253;1257;107523;-82
2023/05/29 06:26:26;;;;;;;5.80;3.20;;;;;;;17.81;55.53;100471.04;131283;1255;107526;-82
2023/05/29 06:29:33;;;;;;;5.90;3.10;;;;;;;17.77;54.31;100470.14;131257;1251;106631;-82
2023/05/29 06:32:38;;;;;;;4.60;3.00;;;;;;;17.71;55.11;100469.14;131348;1254;106819;-82
2023/05/29 06:35:46;;;;;;;6.80;3.10;;;;;;;17.72;54.67;100469.50;131455;1256;107816;-82
2023/05/29 06:38:52;;;;;;;4.10;3.10;;;;;;;17.71;54.86;100470.40;131457;1254;107483;-82
2023/05/29 06:41:58;;;;;;;6.80;2.50;;;;;;;17.73;53.84;100471.64;131420;1257;107337;-83
2023/05/29 06:45:03;;;;;;;4.10;2.90;;;;;;;17.73;54.34;100475.74;131600;1255;107725;-83
2023/05/29 06:48:10;;;;;;;4.90;2.90;;;;;;;17.79;54.73;100474.22;131444;1251;107504;-83
2023/05/29 06:51:18;;;;;;;4.70;2.30;;;;;;;17.83;54.02;100472.43;131446;1255;107385;-83
2023/05/29 06:54:44;;;;;;;7.40;2.30;;;;;;;17.88;53.22;100469.92;131381;1255;107648;-83
2023/05/29 06:57:53;;;;;;;3.80;1.80;;;;;;;17.93;52.83;100467.05;131491;1254;107552;-83
2023/05/29 07:01:00;;;;;;;3.30;1.80;;;;;;;18.02;51.51;100465.17;131488;1255;107370;-83
2023/05/29 07:04:09;;;;;;;;;;;;;;;18.04;48.71;100470.87;131335;1257;107593;-83
2023/05/29 07:07:16;;;;;;;3.30;1.40;;;;;;;18.06;49.37;100473.55;131257;1264;107549;-83
2023/05/29 07:10:22;;;;;;;2.50;1.20;;;;;;;18.12;47.56;100476.54;131296;1255;107354;-83
2023/05/29 07:13:28;;;;;;;4.40;1.80;;;;;;;18.18;49.35;100479.70;131136;1265;107529;-83
2023/05/29 07:16:34;;;;;;;2.80;1.70;;;;;;;18.28;47.73;100480.21;131500;1254;107494;-83
2023/05/29 07:19:43;;;;;;;4.10;1.70;;;;;;;18.35;48.13;100482.38;131534;1257;108463;-83
2023/05/29 07:22:49;;;;;;;2.50;1.60;;;;;;;18.37;47.43;100486.80;131474;1265;107913;-83
2023/05/29 07:25:55;;;;;;;3.30;1.90;;;;;;;18.43;48.31;100489.57;131452;1251;107213;-83
2023/05/29 07:29:04;;;;;;;3.70;1.60;;;;;;;18.51;48.37;100489.87;131570;1257;107569;-85
2023/05/29 07:32:13;;;;;;;3.00;1.90;;;;;;;18.60;47.87;100490.16;131436;1256;108367;-82
2023/05/29 07:35:20;;;;;;;4.90;2.00;;;;;;;18.64;46.62;100488.98;131465;1251;107594;-82
2023/05/29 07:38:27;;;;;;;3.10;1.70;;;;;;;18.64;46.75;100486.36;131310;1255;107557;-84
2023/05/29 07:41:32;;;;;;;3.20;1.40;;;;;;;18.73;47.01;100487.95;131399;1264;107510;-84
2023/05/29 07:44:41;;;;;;;3.60;1.50;;;;;;;18.83;47.00;100490.29;131175;1251;107322;-84
2023/05/29 07:47:47;;;;;;;5.70;1.80;;;;;;;18.90;47.10;100489.11;131254;1256;106916;-84
2023/05/29 07:50:54;;;;;;;3.20;1.60;;;;;;;18.96;45.33;100493.96;131332;1265;107453;-84
2023/05/29 07:53:59;;;;;;;7.20;2.00;;;;;;;19.00;44.98;100486.38;130897;1257;106539;-85
2023/05/29 07:57:09;;;;;;;3.10;1.30;;;;;;;19.04;44.23;100489.52;130855;1257;109292;-84
2023/05/29 08:00:16;;;;;;;3.80;1.70;;;;;;;19.10;44.29;100488.90;131193;1253;107508;-84
2023/05/29 08:03:25;;;;;;;4.10;1.60;;;;;;;19.14;44.79;100487.84;131389;1251;106093;-84
2023/05/29 08:06:50;;;;;;;2.60;1.20;;;;;;;19.23;45.55;100492.77;131423;1257;107564;-84
2023/05/29 08:09:56;;;;;;;10.50;1.90;;;;;;;19.33;45.49;100488.41;131284;1256;106699;-84
2023/05/29 08:13:02;;;;;;;2.60;2.00;;;;;;;19.42;45.56;100487.48;131264;1255;108128;-84
2023/05/29 08:16:09;;;;;;;4.10;2.00;;;;;;;19.53;45.71;100489.30;131090;1255;107548;-82
2023/05/29 08:19:15;;;;;;;2.30;1.50;;;;;;;19.61;44.63;100488.00;131334;1254;107447;-82
2023/05/29 08:22:22;;;;;;;3.70;1.60;;;;;;;19.61;43.86;100492.83;131136;1263;107858;-82
2023/05/29 08:25:27;;;;;;;2.30;1.60;;;;;;;19.58;43.36;100491.17;131138;1251;107241;-82
2023/05/29 08:28:33;;;;;;;2.60;1.40;;;;;;;19.58;43.91;100487.54;131245;1254;107496;-83
2023/05/29 08:31:38;;;;;;;3.80;1.60;;;;;;;19.65;44.58;100490.17;131290;1254;108509;-82
2023/05/29 08:34:45;;;;;;;2.50;1.30;;;;;;;19.71;43.13;100491.58;131294;1254;107228;-83
2023/05/29 08:37:50;;;;;;;3.70;1.50;;;;;;;19.71;42.62;100496.78;131178;1251;107451;-83
2023/05/29 08:40:57;;;;;;;3.70;2.00;;;;;;;19.76;43.67;100493.51;131127;1254;107483;-83
2023/05/29 08:44:08;;;;;;;3.20;1.60;;;;;;;19.82;42.28;100492.84;131372;1255;107513;-82
2023/05/29 08:47:20;;;;;;;3.20;1.50;;;;;;;19.84;43.24;100492.34;131080;1254;107523;-83
2023/05/29 08:50:24;;;;;;;;;;;;;;;19.89;40.98;100491.38;131232;1254;107346;-83
2023/05/29 08:53:31;;;;;;;2.20;1.40;;;;;;;19.87;42.63;100490.30;131150;1254;105705;-82
2023/05/29 08:56:37;;;;;;;3.70;1.50;;;;;;;19.97;43.15;100486.46;131129;1256;107311;-82
2023/05/29 08:59:45;;;;;;;4.30;1.60;;;;;;;20.09;43.28;100483.45;131327;1254;106008;-83
2023/05/29 09:02:53;;;;;;;3.80;1.80;;;;;;;20.18;42.51;100485.31;131266;1254;107420;-82
2023/05/29 09:06:03;;;;;;;4.20;1.70;;;;;;;20.23;42.23;100484.23;131150;1251;109045;-83
2023/05/29 09:09:09;;;;;;;6.00;1.60;;;;;;;20.28;41.43;100483.79;131115;1251;107461;-83
2023/05/29 09:12:15;;;;;;;4.90;1.70;;;;;;;20.26;40.68;100485.34;131161;1261;107777;-83
2023/05/29 09:15:23;;;;;;;3.80;1.60;;;;;;;20.27;41.61;100482.13;131167;1255;107395;-83
2023/05/29 09:18:32;;;;;;;3.00;1.60;;;;;;;20.32;41.74;100478.31;131119;1264;107468;-83
2023/05/29 09:21:39;;;;;;;4.30;1.50;;;;;;;20.41;41.99;100477.72;131171;1255;105517;-83
2023/05/29 09:24:47;;;;;;;5.00;1.60;;;;;;;20.43;40.66;100474.46;131237;1262;107269;-82
2023/05/29 09:27:55;;;;;;;5.60;1.50;;;;;;;20.30;38.24;100478.88;131284;1254;107513;-83
2023/05/29 09:31:01;;;;;;;5.00;1.80;;;;;;;20.15;38.60;100473.27;131306;1262;107833;-82
2023/05/29 09:34:06;;;;;;;4.80;2.30;;;;;;;20.16;40.79;100470.27;131161;1254;107519;-82
2023/05/29 09:37:13;;;;;;;4.20;1.80;;;;;;;20.31;41.32;100469.54;131028;1254;107599;-83
2023/05/29 09:40:21;;;;;;;3.30;1.60;;;;;;;20.45;41.35;100470.13;131179;1254;107420;-82
2023/05/29 09:43:26;;;;;;;3.80;1.70;;;;;;;20.57;40.37;100470.41;131226;1251;107220;-82
2023/05/29 09:46:36;;;;;;;2.20;1.60;;;;;;;20.57;40.27;100467.75;131282;1254;107498;-83
2023/05/29 09:49:45;;;;;;;3.70;1.50;;;;;;;20.58;39.83;100477.52;131094;1251;107299;-83
2023/05/29 09:52:52;;;;;;;2.80;1.40;;;;;;;20.59;40.18;100471.02;131067;1251;107345;-82
2023/05/29 09:55:59;;;;;;;2.30;1.40;;;;;;;20.62;39.54;100474.40;131111;1253;107464;-82
2023/05/29 09:59:05;;;;;;;3.00;1.60;;;;;;;20.65;40.26;100471.63;131248;1252;107285;-83
2023/05/29 10:02:13;;;;;;;4.40;1.70;;;;;;;20.72;40.24;100469.81;131217;1255;107145;-82
2023/05/29 10:05:20;;;;;;;3.90;3.50;;;;;;;20.78;39.38;100471.13;131118;1256;107631;-83
2023/05/29 10:08:31;;;;;;;3.90;2.50;;;;;;;20.84;40.26;100466.39;131086;1254;107449;-83
2023/05/29 10:11:38;;;;;;;2.70;1.90;;;;;;;20.93;39.99;100467.55;131252;1254;107487;-83
2023/05/29 10:14:46;;;;;;;4.70;1.90;;;;;;;20.96;39.84;100465.48;131185;1251;108570;-83
2023/05/29 10:17:58;;;;;;;4.30;1.40;;;;;;;21.02;39.50;100464.05;131184;1254;106690;-83
2023/05/29 10:21:05;;;;;;;6.20;2.30;;;;;;;21.01;38.22;100460.50;131219;1255;107559;-83
2023/05/29 10:24:12;;;;;;;5.70;1.90;;;;;;;20.97;38.92;100456.51;131145;1264;107342;-83
2023/05/29 10:27:18;;;;;;;3.50;1.70;;;;;;;20.94;37.66;100459.28;131108;1256;106764;-83
2023/05/29 10:30:37;;;;;;;4.30;1.60;;;;;;;20.99;39.18;100452.70;131167;1251;107592;-83
2023/05/29 10:34:01;;;;;;;2.10;1.60;;;;;;;21.07;38.46;100455.50;131175;1251;107203;-83
2023/05/29 10:37:17;;;;;;;4.50;1.80;;;;;;;21.06;38.89;100450.95;131097;1254;107363;-83
2023/05/29 10:40:27;;;;;;;3.60;2.00;;;;;;;21.11;37.51;100447.13;131112;1254;107503;-82
2023/05/29 10:43:37;;;;;;;5.80;1.90;;;;;;;21.12;37.65;100442.49;131172;1256;107549;-83
2023/05/29 10:47:05;;;;;;;3.80;2.00;;;;;;;21.10;37.05;100442.67;131146;1254;107370;-83
2023/05/29 10:50:12;;;;;;;2.10;1.60;;;;;;;21.09;36.99;100445.08;131164;1254;107553;-82
2023/05/29 10:53:23;;;;;;;4.50;1.80;;;;;;;21.12;37.72;100442.36;131133;1255;107288;-83
2023/05/29 10:56:32;;;;;;;2.80;1.60;;;;;;;21.24;38.13;100441.24;131096;1251;107569;-83
2023/05/29 10:59:39;;;;;;;4.80;1.50;;;;;;;21.33;38.00;100438.68;131109;1257;107222;-83
2023/05/29 11:02:45;;;;;;;2.50;1.90;;;;;;;21.38;37.04;100437.52;131146;1254;107522;-82
2023/05/29 11:06:01;;;;;;;3.00;2.10;;;;;;;21.41;36.61;100436.06;131141;1266;107574;-82
2023/05/29 11:09:09;;;;;;;7.30;2.20;;;;;;;21.51;36.79;100435.73;131212;1254;107500;-83
2023/05/29 11:12:25;;;;;;;5.80;2.20;;;;;;;21.51;35.18;100437.78;131113;1254;107438;-83
2023/05/29 11:15:30;;;;;;;3.40;1.80;;;;;;;21.46;35.68;100432.55;131288;1251;107465;-83
2023/05/29 11:18:44;;;;;;;3.50;1.80;;;;;;;21.52;36.37;100429.33;131223;1254;106181;-83
2023/05/29 11:22:09;;;;;;;3.10;1.80;;;;;;;21.62;36.91;100424.80;131195;1254;107627;-83
2023/05/29 11:25:16;;;;;;;3.00;1.80;;;;;;;21.74;36.78;100422.15;131193;1255;107552;-84
2023/05/29 11:28:22;;;;;;;3.80;2.10;;;;;;;21.83;36.57;100420.68;131163;1263;107489;-83
2023/05/29 11:31:31;;;;;;;3.70;2.00;;;;;;;21.87;35.71;100421.21;131172;1251;107512;-83
2023/05/29 11:34:39;;;;;;;3.00;1.80;;;;;;;21.93;35.47;100424.09;131256;1251;107397;-83
2023/05/29 11:37:47;;;;;;;3.60;1.90;;;;;;;22.02;36.50;100420.70;131223;1250;107615;-83
2023/05/29 11:40:53;;;;;;;3.80;1.70;;;;;;;22.14;35.62;100418.57;131887;1250;107153;-83
2023/05/29 11:44:05;;;;;;;2.60;2.20;;;;;;;22.23;36.55;100416.05;131303;1251;107466;-84
2023/05/29 11:47:11;;;;;;;2.30;1.80;;;;;;;22.11;35.67;100422.36;131287;1250;107406;-84
2023/05/29 11:50:22;;;;;;;4.70;1.90;;;;;;;22.03;35.99;100416.63;131232;1254;107535;-84
2023/05/29 11:53:29;;;;;;;6.20;1.90;;;;;;;22.13;36.45;100411.13;131288;1256;107555;-84
2023/05/29 11:56:36;;;;;;;5.30;2.20;;;;;;;22.09;35.34;100413.52;131145;1254;107419;-84
2023/05/29 11:59:43;;;;;;;2.80;1.80;;;;;;;22.16;35.57;100415.41;131140;1254;107441;-84
2023/05/29 12:02:49;;;;;;;4.00;2.20;;;;;;;22.27;34.89;100411.14;131160;1251;107505;-83
2023/05/29 12:05:55;;;;;;;3.50;2.10;;;;;;;22.32;34.50;100410.42;131176;1254;107488;-83
2023/05/29 12:09:02;;;;;;;4.60;2.30;;;;;;;22.40;34.82;100405.69;131178;1251;107584;-83
2023/05/29 12:12:09;;;;;;;3.90;2.30;;;;;;;22.41;34.59;100404.50;131190;1254;107504;-83
2023/05/29 12:15:15;;;;;;;2.70;2.00;;;;;;;22.46;34.35;100404.48;131121;1255;107426;-83
2023/05/29 12:18:21;;;;;;;4.20;2.00;;;;;;;22.49;34.69;100400.59;131254;1251;107429;-83
2023/05/29 12:21:27;;;;;;;3.50;2.00;;;;;;;22.54;34.29;100399.73;131114;1254;107230;-83
2023/05/29 12:24:35;;;;;;;2.50;2.00;;;;;;;22.64;35.04;100394.75;131247;1254;107508;-83
2023/05/29 12:27:42;;;;;;;3.80;2.20;;;;;;;22.66;34.91;100395.95;131216;1254;107418;-83
2023/05/29 12:30:49;;;;;;;4.00;2.10;;;;;;;22.53;34.74;100393.57;131197;1254;107526;-82
2023/05/29 12:33:59;;;;;;;2.50;2.00;;;;;;;22.50;34.79;100393.98;131266;1251;107356;-82
2023/05/29 12:37:11;;;;;;;3.40;1.80;;;;;;;22.54;35.00;100391.20;131074;1257;107531;-81
2023/05/29 12:40:22;;;;;;;5.40;2.20;;;;;;;22.74;35.12;100382.82;131092;1254;105913;-81
2023/05/29 12:43:27;;;;;;;4.60;2.10;;;;;;;22.89;33.81;100377.04;131210;1252;107515;-81
2023/05/29 12:46:39;;;;;;;3.30;1.90;;;;;;;23.01;34.92;100370.94;131095;1254;107534;-81
2023/05/29 12:49:45;;;;;;;6.50;2.10;;;;;;;23.12;33.87;100370.48;131161;1254;107724;-81
2023/05/29 12:52:57;;;;;;;4.00;2.30;;;;;;;23.12;34.63;100368.73;131186;1258;107617;-81
2023/05/29 12:56:03;;;;;;;5.00;2.10;;;;;;;23.06;33.73;100372.55;131154;1252;107609;-81
2023/05/29 12:59:09;;;;;;;4.20;2.10;;;;;;;22.80;34.34;100370.60;131076;1255;107627;-81
2023/05/29 13:02:15;;;;;;;3.10;1.90;;;;;;;22.71;34.87;100368.24;131104;1254;107641;-81
2023/05/29 13:05:22;;;;;;;2.40;1.70;;;;;;;22.74;34.73;100364.27;131067;1254;107484;-81
2023/05/29 13:08:28;;;;;;;3.10;2.00;;;;;;;22.74;33.88;100364.61;131173;1254;108649;-81
2023/05/29 13:11:34;;;;;;;2.50;1.80;;;;;;;22.76;34.42;100357.52;131081;1254;107672;-81
2023/05/29 13:14:40;;;;;;;4.40;1.90;;;;;;;22.83;34.52;100355.83;131048;1254;107478;-81
2023/05/29 13:17:46;;;;;;;2.30;1.90;;;;;;;22.91;34.10;100352.48;131254;1261;107427;-81
2023/05/29 13:20:51;;;;;;;4.90;2.30;;;;;;;22.96;33.27;100351.86;131168;1251;108272;-81
2023/05/29 13:23:57;;;;;;;4.50;2.00;;;;;;;22.91;32.98;100351.64;131206;1254;107444;-81
2023/05/29 13:27:03;;;;;;;4.80;1.90;;;;;;;22.95;34.16;100343.93;131074;1254;107511;-82
2023/05/29 13:30:10;;;;;;;2.50;1.70;;;;;;;23.05;33.99;100342.75;131123;1251;107689;-81
2023/05/29 13:33:16;;;;;;;6.00;1.80;;;;;;;23.11;33.93;100339.21;131025;1254;107388;-81
2023/05/29 13:36:22;;;;;;;3.10;1.80;;;;;;;23.12;32.64;100340.33;131165;1251;108116;-81
2023/05/29 13:39:28;;;;;;;3.90;2.10;;;;;;;23.07;33.12;100338.95;131208;1254;106836;-81
2023/05/29 13:42:34;;;;;;;3.80;1.90;;;;;;;23.05;33.79;100339.53;131041;1251;107559;-81
2023/05/29 13:45:40;;;;;;;4.40;1.90;;;;;;;23.06;33.62;100337.45;131071;1254;107223;-81
2023/05/29 13:48:46;;;;;;;3.40;2.50;;;;;;;23.10;33.74;100332.92;131057;1251;108497;-81
2023/05/29 13:51:51;;;;;;;3.30;2.10;;;;;;;23.18;33.77;100333.05;131170;1254;106702;-81
2023/05/29 13:54:59;;;;;;;2.70;1.70;;;;;;;23.25;33.29;100334.69;131067;1251;108562;-81
2023/05/29 13:58:04;;;;;;;2.10;1.60;;;;;;;23.18;32.60;100332.16;131233;1254;107444;-82
2023/05/29 14:01:10;;;;;;;4.40;1.80;;;;;;;23.13;33.31;100328.60;131124;1254;107433;-81
2023/05/29 14:04:15;;;;;;;2.20;1.60;;;;;;;23.13;32.98;100327.17;131036;1254;107497;-81
2023/05/29 14:07:21;;;;;;;3.60;1.80;;;;;;;23.17;32.62;100330.46;131268;1256;107531;-81
2023/05/29 14:10:27;;;;;;;4.70;1.60;;;;;;;23.10;33.19;100326.55;131151;1255;107400;-81
2023/05/29 14:13:32;;;;;;;5.30;2.10;;;;;;;23.12;32.99;100321.92;131170;1251;107519;-82
2023/05/29 14:16:38;;;;;;;2.70;1.90;;;;;;;23.09;32.37;100325.48;131390;1251;106548;-78